sensor_id;sensor_type;location;lat;lon;timestamp;temperature;humidity
43015;DHT22;28637;50.554;7.032;2022-09-09T00:03:54;15.70;99.90
43015;DHT22;28637;50.554;7.032;2022-09-09T00:09:04;15.70;99.90
43015;DHT22;28637;50.554;7.032;2022-09-09T00:19:33;15.80;99.90
43015;DHT22;28637;50.554;7.032;2022-09-09T00:29:53;15.90;99.90
43015;DHT22;28637;50.554;7.032;2022-09-09T00:40:34;15.90;99.90
43015;DHT22;28637;50.554;7.032;2022-09-09T00:50:56;15.80;99.90
43015;DHT22;28637;50.554;7.032;2022-09-09T00:56:14;15.90;99.90
43015;DHT22;28637;50.554;7.032;2022-09-09T01:01:17;15.80;99.90
43015;DHT22;28637;50.554;7.032;2022-09-09T01:06:35;15.80;99.90
43015;DHT22;28637;50.554;7.032;2022-09-09T01:16:57;15.80;99.90
43015;DHT22;28637;50.554;7.032;2022-09-09T01:22:26;15.80;99.90
43015;DHT22;28637;50.554;7.032;2022-09-09T01:27:30;15.80;99.90
43015;DHT22;28637;50.554;7.032;2022-09-09T01:32:39;15.80;99.90
43015;DHT22;28637;50.554;7.032;2022-09-09T01:37:40;15.80;99.90
43015;DHT22;28637;50.554;7.032;2022-09-09T01:42:42;15.80;99.90
43015;DHT22;28637;50.554;7.032;2022-09-09T01:47:43;15.80;99.90
43015;DHT22;28637;50.554;7.032;2022-09-09T01:52:48;15.80;99.90
43015;DHT22;28637;50.554;7.032;2022-09-09T02:03:27;15.80;99.90
43015;DHT22;28637;50.554;7.032;2022-09-09T02:13:39;15.80;99.90
43015;DHT22;28637;50.554;7.032;2022-09-09T02:18:57;15.90;99.90
43015;DHT22;28637;50.554;7.032;2022-09-09T02:24:02;15.90;99.90
43015;DHT22;28637;50.554;7.032;2022-09-09T02:29:08;15.90;99.90
43015;DHT22;28637;50.554;7.032;2022-09-09T02:34:11;15.90;99.90
43015;DHT22;28637;50.554;7.032;2022-09-09T02:39:13;15.80;99.90
43015;DHT22;28637;50.554;7.032;2022-09-09T02:44:16;15.80;99.90
43015;DHT22;28637;50.554;7.032;2022-09-09T02:54:39;15.80;99.90
43015;DHT22;28637;50.554;7.032;2022-09-09T02:59:40;15.80;99.90
43015;DHT22;28637;50.554;7.032;2022-09-09T03:04:42;15.90;99.90
43015;DHT22;28637;50.554;7.032;2022-09-09T03:09:51;15.90;99.90
43015;DHT22;28637;50.554;7.032;2022-09-09T03:14:52;15.90;99.90
43015;DHT22;28637;50.554;7.032;2022-09-09T03:19:53;16.00;99.90
43015;DHT22;28637;50.554;7.032;2022-09-09T03:24:55;15.90;99.90
43015;DHT22;28637;50.554;7.032;2022-09-09T03:29:56;15.90;99.90
43015;DHT22;28637;50.554;7.032;2022-09-09T03:34:57;15.80;99.90
43015;DHT22;28637;50.554;7.032;2022-09-09T03:39:57;15.80;99.90
43015;DHT22;28637;50.554;7.032;2022-09-09T03:44:58;15.80;99.90
43015;DHT22;28637;50.554;7.032;2022-09-09T03:49:59;15.80;99.90
43015;DHT22;28637;50.554;7.032;2022-09-09T03:55:00;15.80;99.90
43015;DHT22;28637;50.554;7.032;2022-09-09T04:00:04;15.90;99.90
43015;DHT22;28637;50.554;7.032;2022-09-09T04:05:06;15.80;99.90
43015;DHT22;28637;50.554;7.032;2022-09-09T04:10:07;15.80;99.90
43015;DHT22;28637;50.554;7.032;2022-09-09T04:15:09;15.80;99.90
43015;DHT22;28637;50.554;7.032;2022-09-09T04:20:10;15.80;99.90
43015;DHT22;28637;50.554;7.032;2022-09-09T04:25:12;15.70;99.90
43015;DHT22;28637;50.554;7.032;2022-09-09T04:30:13;15.70;99.90
43015;DHT22;28637;50.554;7.032;2022-09-09T04:35:13;15.70;99.90
43015;DHT22;28637;50.554;7.032;2022-09-09T04:40:15;15.70;99.90
43015;DHT22;28637;50.554;7.032;2022-09-09T04:45:17;15.70;99.90
43015;DHT22;28637;50.554;7.032;2022-09-09T04:50:19;15.60;99.90
43015;DHT22;28637;50.554;7.032;2022-09-09T04:55:19;15.70;99.90
43015;DHT22;28637;50.554;7.032;2022-09-09T05:00:20;15.60;99.90
43015;DHT22;28637;50.554;7.032;2022-09-09T05:05:21;15.60;99.90
43015;DHT22;28637;50.554;7.032;2022-09-09T05:10:22;15.60;99.90
43015;DHT22;28637;50.554;7.032;2022-09-09T05:15:23;15.70;99.90
43015;DHT22;28637;50.554;7.032;2022-09-09T05:20:24;15.70;99.90
43015;DHT22;28637;50.554;7.032;2022-09-09T05:25:25;15.90;99.90
43015;DHT22;28637;50.554;7.032;2022-09-09T05:30:26;15.90;99.90
43015;DHT22;28637;50.554;7.032;2022-09-09T05:35:27;16.30;99.90
43015;DHT22;28637;50.554;7.032;2022-09-09T05:40:27;16.30;99.90
43015;DHT22;28637;50.554;7.032;2022-09-09T05:45:28;16.60;99.90
43015;DHT22;28637;50.554;7.032;2022-09-09T05:50:29;16.80;99.90
43015;DHT22;28637;50.554;7.032;2022-09-09T05:55:30;16.80;99.90
43015;DHT22;28637;50.554;7.032;2022-09-09T06:00:31;16.80;99.90
43015;DHT22;28637;50.554;7.032;2022-09-09T06:05:32;16.80;99.90
43015;DHT22;28637;50.554;7.032;2022-09-09T06:10:33;16.80;99.90
43015;DHT22;28637;50.554;7.032;2022-09-09T06:15:34;17.00;99.90
43015;DHT22;28637;50.554;7.032;2022-09-09T06:20:35;16.90;99.90
43015;DHT22;28637;50.554;7.032;2022-09-09T06:25:36;16.70;99.90
43015;DHT22;28637;50.554;7.032;2022-09-09T06:30:37;16.60;99.90
43015;DHT22;28637;50.554;7.032;2022-09-09T06:35:38;16.60;99.90
43015;DHT22;28637;50.554;7.032;2022-09-09T06:40:39;16.60;99.90
43015;DHT22;28637;50.554;7.032;2022-09-09T06:45:40;16.70;99.90
43015;DHT22;28637;50.554;7.032;2022-09-09T06:50:40;16.60;99.90
43015;DHT22;28637;50.554;7.032;2022-09-09T06:55:41;16.80;99.90
43015;DHT22;28637;50.554;7.032;2022-09-09T07:00:44;16.80;99.90
43015;DHT22;28637;50.554;7.032;2022-09-09T07:05:54;16.80;99.90
43015;DHT22;28637;50.554;7.032;2022-09-09T07:11:04;16.90;99.90
43015;DHT22;28637;50.554;7.032;2022-09-09T07:16:07;17.00;99.90
43015;DHT22;28637;50.554;7.032;2022-09-09T07:21:10;17.10;99.90
43015;DHT22;28637;50.554;7.032;2022-09-09T07:26:13;17.10;99.90
43015;DHT22;28637;50.554;7.032;2022-09-09T07:31:16;17.10;99.90
43015;DHT22;28637;50.554;7.032;2022-09-09T07:41:25;17.00;99.90
43015;DHT22;28637;50.554;7.032;2022-09-09T07:46:26;17.30;99.90
43015;DHT22;28637;50.554;7.032;2022-09-09T07:51:32;17.60;99.90
43015;DHT22;28637;50.554;7.032;2022-09-09T07:56:33;17.70;99.90
43015;DHT22;28637;50.554;7.032;2022-09-09T08:01:40;17.70;99.90
43015;DHT22;28637;50.554;7.032;2022-09-09T08:06:45;17.80;99.90
43015;DHT22;28637;50.554;7.032;2022-09-09T08:11:47;18.10;99.90
43015;DHT22;28637;50.554;7.032;2022-09-09T08:16:48;18.20;99.90
43015;DHT22;28637;50.554;7.032;2022-09-09T08:21:49;18.30;99.90
43015;DHT22;28637;50.554;7.032;2022-09-09T08:26:50;18.30;99.90
43015;DHT22;28637;50.554;7.032;2022-09-09T08:31:53;18.50;99.90
43015;DHT22;28637;50.554;7.032;2022-09-09T08:36:54;18.60;99.90
43015;DHT22;28637;50.554;7.032;2022-09-09T08:42:08;18.50;99.90
43015;DHT22;28637;50.554;7.032;2022-09-09T08:58:23;18.80;99.90
43015;DHT22;28637;50.554;7.032;2022-09-09T09:13:43;19.40;99.90
43015;DHT22;28637;50.554;7.032;2022-09-09T09:18:46;19.70;99.40
43015;DHT22;28637;50.554;7.032;2022-09-09T09:23:58;19.40;99.10
43015;DHT22;28637;50.554;7.032;2022-09-09T09:29:08;19.20;98.40
43015;DHT22;28637;50.554;7.032;2022-09-09T09:34:10;19.30;98.90
43015;DHT22;28637;50.554;7.032;2022-09-09T09:39:33;19.70;99.00
43015;DHT22;28637;50.554;7.032;2022-09-09T09:44:40;20.10;99.00
43015;DHT22;28637;50.554;7.032;2022-09-09T09:49:56;20.00;96.90
43015;DHT22;28637;50.554;7.032;2022-09-09T09:55:03;19.90;96.80
43015;DHT22;28637;50.554;7.032;2022-09-09T10:05:23;19.70;96.70
43015;DHT22;28637;50.554;7.032;2022-09-09T10:59:18;19.90;96.90
43015;DHT22;28637;50.554;7.032;2022-09-09T11:04:27;20.00;97.90
43015;DHT22;28637;50.554;7.032;2022-09-09T11:09:40;20.10;97.90
43015;DHT22;28637;50.554;7.032;2022-09-09T11:14:51;20.10;96.30
43015;DHT22;28637;50.554;7.032;2022-09-09T11:19:54;19.70;96.50
43015;DHT22;28637;50.554;7.032;2022-09-09T11:25:04;19.80;97.60
43015;DHT22;28637;50.554;7.032;2022-09-09T11:40:28;21.60;94.90
43015;DHT22;28637;50.554;7.032;2022-09-09T11:45:31;21.60;93.40
43015;DHT22;28637;50.554;7.032;2022-09-09T11:50:37;21.90;93.40
43015;DHT22;28637;50.554;7.032;2022-09-09T11:55:38;22.30;93.70
43015;DHT22;28637;50.554;7.032;2022-09-09T12:00:44;21.90;92.30
43015;DHT22;28637;50.554;7.032;2022-09-09T12:05:46;22.20;92.30
43015;DHT22;28637;50.554;7.032;2022-09-09T12:10:54;22.20;92.70
43015;DHT22;28637;50.554;7.032;2022-09-09T12:15:57;22.60;91.00
43015;DHT22;28637;50.554;7.032;2022-09-09T12:21:15;21.90;92.00
43015;DHT22;28637;50.554;7.032;2022-09-09T12:26:31;21.90;92.30
43015;DHT22;28637;50.554;7.032;2022-09-09T12:36:38;21.60;91.50
43015;DHT22;28637;50.554;7.032;2022-09-09T12:41:40;21.30;90.20
43015;DHT22;28637;50.554;7.032;2022-09-09T12:46:44;21.20;91.30
43015;DHT22;28637;50.554;7.032;2022-09-09T12:51:45;21.20;91.00
43015;DHT22;28637;50.554;7.032;2022-09-09T12:56:48;20.90;91.10
43015;DHT22;28637;50.554;7.032;2022-09-09T13:01:57;20.50;91.20
43015;DHT22;28637;50.554;7.032;2022-09-09T13:07:07;20.20;91.60
43015;DHT22;28637;50.554;7.032;2022-09-09T13:12:18;20.20;93.70
43015;DHT22;28637;50.554;7.032;2022-09-09T13:17:24;20.10;94.10
43015;DHT22;28637;50.554;7.032;2022-09-09T13:22:36;20.00;96.00
43015;DHT22;28637;50.554;7.032;2022-09-09T13:28:18;20.20;96.80
43015;DHT22;28637;50.554;7.032;2022-09-09T13:33:29;21.10;94.60
43015;DHT22;28637;50.554;7.032;2022-09-09T13:38:33;20.90;94.70
43015;DHT22;28637;50.554;7.032;2022-09-09T13:43:54;20.80;95.20
43015;DHT22;28637;50.554;7.032;2022-09-09T13:49:19;20.90;96.10
43015;DHT22;28637;50.554;7.032;2022-09-09T13:54:21;20.80;95.30
43015;DHT22;28637;50.554;7.032;2022-09-09T13:59:22;21.00;95.40
43015;DHT22;28637;50.554;7.032;2022-09-09T14:04:24;20.50;95.70
43015;DHT22;28637;50.554;7.032;2022-09-09T14:09:25;19.90;96.50
43015;DHT22;28637;50.554;7.032;2022-09-09T14:14:25;20.10;97.00
43015;DHT22;28637;50.554;7.032;2022-09-09T14:19:26;20.70;95.90
43015;DHT22;28637;50.554;7.032;2022-09-09T14:24:27;20.30;96.70
43015;DHT22;28637;50.554;7.032;2022-09-09T14:29:31;20.20;97.50
43015;DHT22;28637;50.554;7.032;2022-09-09T14:34:32;20.00;99.10
43015;DHT22;28637;50.554;7.032;2022-09-09T14:39:33;19.70;99.40
43015;DHT22;28637;50.554;7.032;2022-09-09T14:44:34;19.80;99.90
43015;DHT22;28637;50.554;7.032;2022-09-09T14:49:35;20.10;99.90
43015;DHT22;28637;50.554;7.032;2022-09-09T14:54:36;20.60;99.90
43015;DHT22;28637;50.554;7.032;2022-09-09T14:59:38;20.80;98.50
43015;DHT22;28637;50.554;7.032;2022-09-09T15:04:38;20.60;99.70
43015;DHT22;28637;50.554;7.032;2022-09-09T15:09:39;20.70;98.60
43015;DHT22;28637;50.554;7.032;2022-09-09T15:14:40;20.60;98.20
43015;DHT22;28637;50.554;7.032;2022-09-09T15:19:41;20.40;98.50
43015;DHT22;28637;50.554;7.032;2022-09-09T15:24:42;19.90;98.40
43015;DHT22;28637;50.554;7.032;2022-09-09T15:29:43;19.70;98.80
43015;DHT22;28637;50.554;7.032;2022-09-09T15:34:44;19.30;99.80
43015;DHT22;28637;50.554;7.032;2022-09-09T15:39:45;19.20;99.90
43015;DHT22;28637;50.554;7.032;2022-09-09T15:44:46;19.20;99.90
43015;DHT22;28637;50.554;7.032;2022-09-09T15:49:46;18.90;99.90
43015;DHT22;28637;50.554;7.032;2022-09-09T15:54:49;18.90;99.90
43015;DHT22;28637;50.554;7.032;2022-09-09T15:59:50;19.10;99.90
43015;DHT22;28637;50.554;7.032;2022-09-09T16:04:51;19.40;99.90
43015;DHT22;28637;50.554;7.032;2022-09-09T16:09:51;18.90;99.90
43015;DHT22;28637;50.554;7.032;2022-09-09T16:14:53;18.40;99.90
43015;DHT22;28637;50.554;7.032;2022-09-09T16:19:53;18.20;99.90
43015;DHT22;28637;50.554;7.032;2022-09-09T16:24:54;18.00;99.90
43015;DHT22;28637;50.554;7.032;2022-09-09T16:29:55;18.00;99.90
43015;DHT22;28637;50.554;7.032;2022-09-09T16:34:56;18.20;99.90
43015;DHT22;28637;50.554;7.032;2022-09-09T16:39:56;17.90;99.90
43015;DHT22;28637;50.554;7.032;2022-09-09T16:44:57;17.70;99.90
43015;DHT22;28637;50.554;7.032;2022-09-09T16:49:58;17.70;99.90
43015;DHT22;28637;50.554;7.032;2022-09-09T16:54:59;17.70;99.90
43015;DHT22;28637;50.554;7.032;2022-09-09T16:59:59;17.60;99.90
43015;DHT22;28637;50.554;7.032;2022-09-09T17:05:00;17.60;99.90
43015;DHT22;28637;50.554;7.032;2022-09-09T17:10:01;17.50;99.90
43015;DHT22;28637;50.554;7.032;2022-09-09T17:15:01;17.40;99.90
43015;DHT22;28637;50.554;7.032;2022-09-09T17:20:06;17.20;99.90
43015;DHT22;28637;50.554;7.032;2022-09-09T17:25:08;17.10;99.90
43015;DHT22;28637;50.554;7.032;2022-09-09T17:30:09;17.20;99.90
43015;DHT22;28637;50.554;7.032;2022-09-09T17:35:09;17.20;99.90
43015;DHT22;28637;50.554;7.032;2022-09-09T17:40:10;17.00;99.90
43015;DHT22;28637;50.554;7.032;2022-09-09T17:45:11;16.90;99.90
43015;DHT22;28637;50.554;7.032;2022-09-09T17:50:12;16.70;99.90
43015;DHT22;28637;50.554;7.032;2022-09-09T17:55:13;16.60;99.90
43015;DHT22;28637;50.554;7.032;2022-09-09T18:00:14;16.40;99.90
43015;DHT22;28637;50.554;7.032;2022-09-09T18:05:15;16.30;99.90
43015;DHT22;28637;50.554;7.032;2022-09-09T18:10:15;16.30;99.90
43015;DHT22;28637;50.554;7.032;2022-09-09T18:15:16;16.30;99.90
43015;DHT22;28637;50.554;7.032;2022-09-09T18:20:17;16.20;99.90
43015;DHT22;28637;50.554;7.032;2022-09-09T18:25:18;16.10;99.90
43015;DHT22;28637;50.554;7.032;2022-09-09T18:30:19;16.10;99.90
43015;DHT22;28637;50.554;7.032;2022-09-09T18:35:19;16.00;99.90
43015;DHT22;28637;50.554;7.032;2022-09-09T18:40:20;16.00;99.90
43015;DHT22;28637;50.554;7.032;2022-09-09T18:45:21;16.10;99.90
43015;DHT22;28637;50.554;7.032;2022-09-09T18:50:22;16.10;99.90
43015;DHT22;28637;50.554;7.032;2022-09-09T18:55:22;16.10;99.90
43015;DHT22;28637;50.554;7.032;2022-09-09T19:00:23;16.00;99.90
43015;DHT22;28637;50.554;7.032;2022-09-09T19:05:24;16.00;99.90
43015;DHT22;28637;50.554;7.032;2022-09-09T19:10:25;16.00;99.90
43015;DHT22;28637;50.554;7.032;2022-09-09T19:15:25;15.90;99.90
43015;DHT22;28637;50.554;7.032;2022-09-09T19:20:27;16.00;99.90
43015;DHT22;28637;50.554;7.032;2022-09-09T19:25:27;15.90;99.90
43015;DHT22;28637;50.554;7.032;2022-09-09T19:30:28;15.90;99.90
43015;DHT22;28637;50.554;7.032;2022-09-09T19:35:29;16.00;99.90
43015;DHT22;28637;50.554;7.032;2022-09-09T19:40:34;15.90;99.90
43015;DHT22;28637;50.554;7.032;2022-09-09T19:45:35;15.90;99.90
43015;DHT22;28637;50.554;7.032;2022-09-09T19:50:36;15.80;99.90
43015;DHT22;28637;50.554;7.032;2022-09-09T19:55:40;15.70;99.90
43015;DHT22;28637;50.554;7.032;2022-09-09T20:00:41;15.60;99.90
43015;DHT22;28637;50.554;7.032;2022-09-09T20:05:42;15.60;99.90
43015;DHT22;28637;50.554;7.032;2022-09-09T20:10:50;15.50;99.90
43015;DHT22;28637;50.554;7.032;2022-09-09T20:16:02;15.50;99.90
43015;DHT22;28637;50.554;7.032;2022-09-09T20:21:05;15.50;99.90
43015;DHT22;28637;50.554;7.032;2022-09-09T20:26:11;15.50;99.90
43015;DHT22;28637;50.554;7.032;2022-09-09T20:31:18;15.50;99.90
43015;DHT22;28637;50.554;7.032;2022-09-09T20:41:21;15.60;99.90
43015;DHT22;28637;50.554;7.032;2022-09-09T20:46:25;15.60;99.90
43015;DHT22;28637;50.554;7.032;2022-09-09T20:51:27;15.60;99.90
43015;DHT22;28637;50.554;7.032;2022-09-09T20:56:34;15.70;99.90
43015;DHT22;28637;50.554;7.032;2022-09-09T21:01:37;15.60;99.90
43015;DHT22;28637;50.554;7.032;2022-09-09T21:06:38;15.60;99.90
43015;DHT22;28637;50.554;7.032;2022-09-09T21:11:39;15.60;99.90
43015;DHT22;28637;50.554;7.032;2022-09-09T21:16:40;15.60;99.90
43015;DHT22;28637;50.554;7.032;2022-09-09T21:21:41;15.50;99.90
43015;DHT22;28637;50.554;7.032;2022-09-09T21:26:41;15.50;99.90
43015;DHT22;28637;50.554;7.032;2022-09-09T21:31:42;15.50;99.90
43015;DHT22;28637;50.554;7.032;2022-09-09T21:36:43;15.40;99.90
43015;DHT22;28637;50.554;7.032;2022-09-09T21:41:43;15.30;99.90
43015;DHT22;28637;50.554;7.032;2022-09-09T21:46:44;15.30;99.90
43015;DHT22;28637;50.554;7.032;2022-09-09T21:51:46;15.10;99.90
43015;DHT22;28637;50.554;7.032;2022-09-09T21:58:09;15.10;99.90
43015;DHT22;28637;50.554;7.032;2022-09-09T22:03:13;15.10;99.90
43015;DHT22;28637;50.554;7.032;2022-09-09T22:08:14;15.10;99.90
43015;DHT22;28637;50.554;7.032;2022-09-09T22:13:17;15.10;99.90
43015;DHT22;28637;50.554;7.032;2022-09-09T22:18:19;15.10;99.90
43015;DHT22;28637;50.554;7.032;2022-09-09T22:23:20;15.10;99.90
43015;DHT22;28637;50.554;7.032;2022-09-09T22:28:21;15.10;99.90
43015;DHT22;28637;50.554;7.032;2022-09-09T22:33:22;15.00;99.90
43015;DHT22;28637;50.554;7.032;2022-09-09T22:38:23;15.00;99.90
43015;DHT22;28637;50.554;7.032;2022-09-09T22:43:24;15.00;99.90
43015;DHT22;28637;50.554;7.032;2022-09-09T22:48:25;15.00;99.90
43015;DHT22;28637;50.554;7.032;2022-09-09T22:53:25;15.10;99.90
43015;DHT22;28637;50.554;7.032;2022-09-09T22:58:28;15.00;99.90
43015;DHT22;28637;50.554;7.032;2022-09-09T23:03:30;15.00;99.90
43015;DHT22;28637;50.554;7.032;2022-09-09T23:08:36;15.10;99.90
43015;DHT22;28637;50.554;7.032;2022-09-09T23:13:39;15.00;99.90
43015;DHT22;28637;50.554;7.032;2022-09-09T23:18:41;15.00;99.90
43015;DHT22;28637;50.554;7.032;2022-09-09T23:23:42;15.00;99.90
43015;DHT22;28637;50.554;7.032;2022-09-09T23:28:45;15.00;99.90
43015;DHT22;28637;50.554;7.032;2022-09-09T23:33:46;14.90;99.90
43015;DHT22;28637;50.554;7.032;2022-09-09T23:38:47;14.90;99.90
43015;DHT22;28637;50.554;7.032;2022-09-09T23:43:49;14.90;99.90
43015;DHT22;28637;50.554;7.032;2022-09-09T23:48:52;14.90;99.90
43015;DHT22;28637;50.554;7.032;2022-09-09T23:53:54;14.90;99.90
43015;DHT22;28637;50.554;7.032;2022-09-09T23:58:56;14.90;99.90
